Brest, Belarus
Current Conditions -  °F | °C
As of 5:30 PM on Friday 19 Dec 2014 (Local Time) from UMBB Reporting Station
Overcast Overcast  
Wind Chill: 10°   Ceiling: 900
Heat Index: 10°   Visibility: 6mi
Dew Point:   Wind: 11mph
Humidity: 94%   Direction: 230°SW
Pressure: 29.68"   Gusts: 18mph
Location:  52.12°N, 23.68°E
Report Text: UMBB 191530Z 23005G08MPS 9000 OVC009CB 10/09 Q1005 R29/290050NOSIG
Loading
Personal Weather Stations






























Interactive Weather Map New forecast layout! Learn more

10-Day Weather Forecast

Advertisements
Track Severe Weather on mobile